createdAt,value
2023-02-05T00:02:24.193Z,103219.94
2023-02-05T00:04:52.007Z,103222.44
2023-02-05T00:07:19.838Z,103221.28
2023-02-05T00:09:47.324Z,103219.44
2023-02-05T00:12:15.037Z,103222.13
2023-02-05T00:14:42.641Z,103223.88
2023-02-05T00:17:10.390Z,103221.41
2023-02-05T00:19:37.965Z,103223.88
2023-02-05T00:22:05.558Z,103226.28
2023-02-05T00:24:33.402Z,103226.38
2023-02-05T00:27:01.125Z,103226.28
2023-02-05T00:29:28.732Z,103223.78
2023-02-05T00:31:56.216Z,103219.59
2023-02-05T00:34:23.943Z,103207.53
2023-02-05T00:36:51.525Z,103209.38
2023-02-05T00:39:20.043Z,103199.91
2023-02-05T00:41:53.140Z,103206.78
2023-02-05T00:44:20.710Z,103214.56
2023-02-05T00:46:48.300Z,103208.50
2023-02-05T00:49:16.155Z,103212.81
2023-02-05T00:51:45.073Z,103211.81
2023-02-05T00:54:12.786Z,103204.81
2023-02-05T00:56:40.512Z,103196.19
2023-02-05T00:59:08.228Z,103193.53
2023-02-05T01:01:35.953Z,103196.97
2023-02-05T01:04:03.911Z,103192.69
2023-02-05T01:06:31.400Z,103184.06
2023-02-05T01:08:59.127Z,103188.34
2023-02-05T01:11:26.839Z,103184.88
2023-02-05T01:18:06.811Z,103171.03
2023-02-05T01:20:38.124Z,103163.25
2023-02-05T01:23:06.097Z,103166.63
2023-02-05T01:25:33.997Z,103162.31
2023-02-05T01:28:07.709Z,103159.56
2023-02-05T01:30:35.876Z,103157.88
2023-02-05T01:33:04.297Z,103150.09
2023-02-05T01:35:34.089Z,103150.94
2023-02-05T01:42:02.619Z,103150.84
2023-02-05T01:44:38.738Z,103148.69
2023-02-05T01:47:06.344Z,103155.44
2023-02-05T01:49:42.950Z,103157.25
2023-02-05T01:52:14.761Z,103151.28
2023-02-05T01:54:46.091Z,103143.63
2023-02-05T01:57:18.340Z,103134.91
2023-02-05T01:59:46.433Z,103129.63
2023-02-05T02:02:14.273Z,103131.25
2023-02-05T02:04:44.548Z,103127.00
2023-02-05T02:07:15.470Z,103121.88
2023-02-05T02:09:45.143Z,103123.69
2023-02-05T02:12:15.852Z,103122.84
2023-02-05T02:14:45.367Z,103115.94
2023-02-05T02:17:13.698Z,103103.78
2023-02-05T02:19:43.086Z,103101.31
2023-02-05T02:23:12.764Z,103096.13
2023-02-05T02:26:06.008Z,103098.59
2023-02-05T02:28:43.082Z,103096.00
2023-02-05T02:31:32.616Z,103095.09
2023-02-05T02:34:11.888Z,103091.47
2023-02-05T02:36:53.409Z,103092.25
2023-02-05T02:39:30.972Z,103075.94
2023-02-05T02:42:20.295Z,103071.50
2023-02-05T02:44:59.668Z,103065.44
2023-02-05T02:47:32.233Z,103068.91
2023-02-05T02:50:07.958Z,103077.59
2023-02-05T02:52:36.385Z,103071.53
2023-02-05T02:55:08.425Z,103079.28
2023-02-05T02:57:38.074Z,103077.53
2023-02-05T03:00:11.201Z,103080.03
2023-02-05T03:02:39.188Z,103077.38
2023-02-05T03:05:19.770Z,103074.88
2023-02-05T03:08:23.801Z,103080.94
2023-02-05T03:10:57.228Z,103076.56
2023-02-05T03:13:24.813Z,103079.13
2023-02-05T03:15:52.521Z,103075.78
2023-02-05T03:18:20.227Z,103070.63
2023-02-05T03:20:54.771Z,103081.06
2023-02-05T03:23:22.398Z,103080.19
2023-02-05T03:25:50.213Z,103076.69
2023-02-05T03:28:17.952Z,103083.50
2023-02-05T03:31:00.801Z,103082.53
2023-02-05T03:33:52.870Z,103083.28
2023-02-05T03:36:27.079Z,103084.09
2023-02-05T03:39:25.025Z,103074.28
2023-02-05T03:42:34.744Z,103069.19
2023-02-05T03:45:21.180Z,103068.34
2023-02-05T03:48:03.308Z,103076.28
2023-02-05T03:50:40.643Z,103077.22
2023-02-05T03:53:37.180Z,103079.00
2023-02-05T03:56:14.708Z,103083.34
2023-02-05T03:58:44.385Z,103070.44
2023-02-05T04:01:12.592Z,103073.97
2023-02-05T04:03:40.879Z,103079.97
2023-02-05T04:06:08.719Z,103082.56
2023-02-05T04:08:36.565Z,103086.88
2023-02-05T04:11:04.402Z,103093.81
2023-02-05T04:13:32.130Z,103099.06
2023-02-05T04:15:59.767Z,103105.19
2023-02-05T04:18:28.549Z,103107.78
2023-02-05T04:20:56.365Z,103108.66
2023-02-05T04:23:24.202Z,103112.97
2023-02-05T04:25:55.663Z,103112.09
2023-02-05T04:28:23.370Z,103100.16
2023-02-05T04:30:51.050Z,103106.97
2023-02-05T04:33:18.574Z,103097.50
2023-02-05T04:35:46.053Z,103097.56
2023-02-05T04:38:13.665Z,103093.31
2023-02-05T04:41:12.469Z,103096.88
2023-02-05T04:43:40.188Z,103095.16
2023-02-05T04:46:10.380Z,103086.56
2023-02-05T04:48:38.629Z,103094.38
2023-02-05T04:51:09.584Z,103091.84
2023-02-05T04:53:37.466Z,103089.28
2023-02-05T04:56:13.438Z,103084.97
2023-02-05T04:58:41.769Z,103070.31
2023-02-05T05:01:23.223Z,103076.31
2023-02-05T05:03:51.019Z,103083.19
2023-02-05T05:06:19.091Z,103077.88
2023-02-05T05:08:46.681Z,103082.09
2023-02-05T05:11:17.405Z,103082.06
2023-02-05T05:13:45.358Z,103082.22
2023-02-05T05:16:13.262Z,103077.88
2023-02-05T05:18:41.052Z,103079.59
2023-02-05T05:21:11.764Z,103070.75
2023-02-05T05:23:39.381Z,103070.66
2023-02-05T05:26:08.668Z,103068.28
2023-02-05T05:28:36.848Z,103071.00
2023-02-05T05:31:09.836Z,103081.41
2023-02-05T05:33:38.182Z,103078.00
2023-02-05T05:36:07.286Z,103080.63
2023-02-05T05:38:35.456Z,103100.47
2023-02-05T05:41:21.986Z,103097.16
2023-02-05T05:43:50.914Z,103098.09
2023-02-05T05:46:24.927Z,103107.47
2023-02-05T05:48:55.003Z,103112.63
2023-02-05T05:51:23.794Z,103116.84
2023-02-05T05:53:51.519Z,103117.63
2023-02-05T05:56:19.880Z,103114.91
2023-02-05T05:58:48.164Z,103103.72
2023-02-05T06:01:17.697Z,103107.06
2023-02-05T06:03:45.439Z,103100.03
2023-02-05T06:06:13.967Z,103088.09
2023-02-05T06:08:41.746Z,103091.59
2023-02-05T06:11:09.411Z,103087.41
2023-02-05T06:13:37.124Z,103090.81
2023-02-05T06:16:05.254Z,103092.66
2023-02-05T06:18:32.816Z,103085.69
2023-02-05T06:21:02.369Z,103087.47
2023-02-05T06:23:30.044Z,103084.06
2023-02-05T06:25:58.125Z,103084.06
2023-02-05T06:28:25.771Z,103087.53
2023-02-05T06:30:53.531Z,103079.03
2023-02-05T06:33:21.307Z,103090.19
2023-02-05T06:35:49.024Z,103091.69
2023-02-05T06:38:17.097Z,103083.91
2023-02-05T06:40:44.845Z,103085.81
2023-02-05T06:43:12.473Z,103090.19
2023-02-05T06:45:40.143Z,103085.94
2023-02-05T06:48:07.786Z,103084.22
2023-02-05T06:50:35.778Z,103084.31
2023-02-05T06:53:05.735Z,103078.31
2023-02-05T06:55:38.735Z,103085.25
2023-02-05T06:58:08.012Z,103084.50
2023-02-05T07:00:36.092Z,103090.59
2023-02-05T07:03:04.283Z,103087.16
2023-02-05T07:05:48.131Z,103101.81
2023-02-05T07:08:24.459Z,103114.50
2023-02-05T07:10:52.296Z,103112.75
2023-02-05T07:13:20.011Z,103109.31
2023-02-05T07:16:12.938Z,103112.88
2023-02-05T07:18:40.900Z,103109.44
2023-02-05T07:21:10.331Z,103102.59
2023-02-05T07:23:44.072Z,103098.34
2023-02-05T07:26:14.586Z,103083.00
2023-02-05T07:28:43.420Z,103090.03
2023-02-05T07:31:17.767Z,103090.94
2023-02-05T07:33:46.661Z,103085.84
2023-02-05T07:36:16.567Z,103089.44
2023-02-05T07:38:45.351Z,103094.59
2023-02-05T07:41:17.870Z,103097.97
2023-02-05T07:43:45.727Z,103092.75
2023-02-05T07:46:14.832Z,103093.72
2023-02-05T07:48:42.718Z,103084.19
2023-02-05T07:51:16.425Z,103080.56
2023-02-05T07:53:44.626Z,103071.69
2023-02-05T07:56:12.836Z,103070.97
2023-02-05T07:58:40.681Z,103074.63
2023-02-05T08:01:09.792Z,103075.66
2023-02-05T08:03:37.445Z,103075.81
2023-02-05T08:06:06.755Z,103066.44
2023-02-05T08:08:34.678Z,103069.16
2023-02-05T08:11:04.454Z,103067.31
2023-02-05T08:13:32.518Z,103072.44
2023-02-05T08:16:51.718Z,103076.84
2023-02-05T08:19:19.570Z,103081.25
2023-02-05T08:21:47.285Z,103076.09
2023-02-05T08:24:14.893Z,103057.91
2023-02-05T08:26:42.740Z,103063.13
2023-02-05T08:29:11.443Z,103062.34
2023-02-05T08:31:39.537Z,103061.50
2023-02-05T08:34:07.702Z,103055.59
2023-02-05T08:36:35.437Z,103053.13
2023-02-05T08:39:03.866Z,103055.72
2023-02-05T08:41:31.584Z,103048.84
2023-02-05T08:43:59.326Z,103055.09
2023-02-05T08:46:40.197Z,103057.69
2023-02-05T08:49:17.084Z,103057.72
2023-02-05T08:51:44.910Z,103061.28
2023-02-05T08:54:13.565Z,103062.25
2023-02-05T08:56:45.050Z,103060.50
2023-02-05T08:59:13.247Z,103051.13
2023-02-05T09:01:43.208Z,103053.84
2023-02-05T09:04:20.119Z,103051.22
2023-02-05T09:06:48.420Z,103051.16
2023-02-05T09:09:16.245Z,103052.03
2023-02-05T09:11:47.220Z,103055.50
2023-02-05T09:14:16.610Z,103052.97
2023-02-05T09:16:44.390Z,103059.88
2023-02-05T09:19:12.281Z,103062.50
2023-02-05T09:21:41.231Z,103058.16
2023-02-05T09:24:11.940Z,103068.63
2023-02-05T09:26:42.001Z,103054.81
2023-02-05T09:29:10.024Z,103056.66
2023-02-05T09:31:37.825Z,103058.41
2023-02-05T09:34:05.823Z,103056.66
2023-02-05T09:36:42.305Z,103060.97
2023-02-05T09:39:25.679Z,103067.25
2023-02-05T09:42:11.112Z,103067.28
2023-02-05T09:45:05.361Z,103062.19
2023-02-05T09:47:36.840Z,103058.75
2023-02-05T09:50:21.476Z,103063.94
2023-02-05T09:52:51.335Z,103064.91
2023-02-05T09:55:26.991Z,103060.72
2023-02-05T09:57:56.256Z,103065.16
2023-02-05T10:00:37.529Z,103061.88
2023-02-05T10:03:18.920Z,103049.94
2023-02-05T10:06:08.424Z,103062.09
2023-02-05T10:09:04.159Z,103060.47
2023-02-05T10:11:34.552Z,103049.28
2023-02-05T10:14:10.420Z,103042.53
2023-02-05T10:17:17.845Z,103047.94
2023-02-05T10:20:01.823Z,103046.34
2023-02-05T10:22:58.536Z,103041.44
2023-02-05T10:29:17.628Z,103028.56
2023-02-05T10:32:03.461Z,103027.72
2023-02-05T10:34:54.377Z,103020.03
2023-02-05T10:37:30.631Z,103009.78
2023-02-05T10:40:10.316Z,103018.56
2023-02-05T10:42:45.607Z,103019.47
2023-02-05T10:45:16.101Z,103016.78
2023-02-05T10:47:57.834Z,103014.38
2023-02-05T10:50:31.194Z,103011.00
2023-02-05T10:52:58.792Z,103012.66
2023-02-05T10:55:29.634Z,103010.03
2023-02-05T10:58:02.673Z,103016.28
2023-02-05T11:00:30.532Z,103006.09
2023-02-05T11:03:01.508Z,102999.25
2023-02-05T11:05:37.835Z,102996.78
2023-02-05T11:08:05.535Z,102991.75
2023-02-05T11:10:35.327Z,102997.72
2023-02-05T11:13:20.064Z,102994.16
2023-02-05T11:15:59.309Z,102994.34
2023-02-05T11:18:29.884Z,103002.34
2023-02-05T11:21:02.665Z,102999.84
2023-02-05T11:23:39.279Z,103007.78
2023-02-05T11:26:22.706Z,103003.44
2023-02-05T11:28:50.786Z,103000.88
2023-02-05T11:31:24.155Z,102994.88
2023-02-05T11:33:52.821Z,102997.50
2023-02-05T11:36:25.397Z,102992.31
2023-02-05T11:38:56.661Z,102986.47
2023-02-05T11:41:56.563Z,102988.41
2023-02-05T11:44:35.782Z,102978.19
2023-02-05T11:47:03.628Z,102987.03
2023-02-05T11:49:37.015Z,102988.91
2023-02-05T11:52:12.873Z,102984.84
2023-02-05T11:54:46.135Z,102985.03
2023-02-05T11:57:20.920Z,102986.88
2023-02-05T12:00:09.876Z,102988.69
2023-02-05T12:02:39.097Z,102992.31
2023-02-05T12:05:12.911Z,102993.28
2023-02-05T12:07:45.414Z,102982.06
2023-02-05T12:10:16.201Z,102979.56
2023-02-05T12:13:04.134Z,102988.44
2023-02-05T12:15:40.612Z,102984.97
2023-02-05T12:18:39.301Z,102976.41
2023-02-05T12:21:28.145Z,102991.28
2023-02-05T12:24:01.854Z,102987.94
2023-02-05T12:26:36.064Z,102983.72
2023-02-05T12:29:21.903Z,102986.44
2023-02-05T12:31:52.307Z,102977.88
2023-02-05T12:34:53.100Z,102977.97
2023-02-05T12:37:48.814Z,102971.06
2023-02-05T12:40:35.152Z,102966.78
2023-02-05T12:43:29.160Z,102975.53
2023-02-05T12:46:15.804Z,102975.59
2023-02-05T12:48:53.367Z,102979.13
2023-02-05T12:51:49.270Z,102974.00
2023-02-05T12:54:24.565Z,102970.53
2023-02-05T12:56:59.236Z,102970.59
2023-02-05T12:59:49.989Z,102974.13
2023-02-05T13:02:30.081Z,102983.75
2023-02-05T13:05:33.591Z,102982.88
2023-02-05T13:08:14.146Z,102985.47
2023-02-05T13:10:56.745Z,102986.34
2023-02-05T13:17:53.934Z,102987.22
2023-02-05T13:20:51.827Z,102990.72
2023-02-05T13:23:38.254Z,102990.69
2023-02-05T13:26:24.967Z,102990.69
2023-02-05T13:28:55.535Z,102989.84
2023-02-05T13:31:42.394Z,102982.00
2023-02-05T13:34:13.700Z,102982.84
2023-02-05T13:37:01.548Z,102985.47
2023-02-05T13:43:09.257Z,103005.50
2023-02-05T13:46:05.170Z,103013.34
2023-02-05T13:49:00.244Z,103013.34
2023-02-05T13:51:59.396Z,103016.72
2023-02-05T13:55:08.989Z,103025.47
2023-02-05T13:58:06.488Z,103027.22
2023-02-05T14:00:34.811Z,103013.31
2023-02-05T14:03:07.124Z,103004.56
2023-02-05T14:05:42.974Z,103008.88
2023-02-05T14:08:23.272Z,103012.34
2023-02-05T14:11:02.890Z,103013.13
2023-02-05T14:13:33.774Z,103001.81
2023-02-05T14:16:40.805Z,102992.25
2023-02-05T14:19:08.293Z,102989.59
2023-02-05T14:21:35.897Z,102997.50
2023-02-05T14:24:24.377Z,103000.97
2023-02-05T14:26:56.429Z,102997.44
2023-02-05T14:29:43.731Z,102991.38
2023-02-05T14:32:26.779Z,102987.13
2023-02-05T14:35:32.639Z,102980.19
2023-02-05T14:38:16.734Z,102981.13
2023-02-05T14:40:44.328Z,102973.25
2023-02-05T14:43:25.372Z,102961.94
2023-02-05T14:45:53.392Z,102950.63
2023-02-05T14:48:27.515Z,102962.81
2023-02-05T14:51:04.016Z,102962.81
2023-02-05T14:53:32.672Z,102952.38
2023-02-05T14:56:01.467Z,102955.81
2023-02-05T14:58:39.870Z,102967.16
2023-02-05T15:01:30.920Z,102971.53
2023-02-05T15:04:00.551Z,102976.78
2023-02-05T15:06:29.231Z,102975.91
2023-02-05T15:09:07.958Z,102982.00
2023-02-05T15:11:44.453Z,102994.19
2023-02-05T15:14:35.497Z,103004.66
2023-02-05T15:17:06.038Z,103005.50
2023-02-05T15:19:45.184Z,103010.69
2023-02-05T15:22:29.345Z,103010.66
2023-02-05T15:24:57.544Z,103022.81
2023-02-05T15:27:37.987Z,103032.31
2023-02-05T15:30:08.987Z,103026.09
2023-02-05T15:32:47.829Z,103026.00
2023-02-05T15:35:18.299Z,103025.97
2023-02-05T15:37:50.251Z,103013.78
2023-02-05T15:40:27.781Z,103009.34
2023-02-05T15:43:00.430Z,103025.78
2023-02-05T15:45:39.923Z,103031.75
2023-02-05T15:48:10.523Z,103032.56
2023-02-05T15:55:12.687Z,103022.81
2023-02-05T15:57:40.404Z,103040.94
2023-02-05T16:00:17.854Z,103041.72
2023-02-05T16:02:57.963Z,103039.09
2023-02-05T16:05:27.114Z,103049.41
2023-02-05T16:08:02.055Z,103051.03
2023-02-05T16:10:34.328Z,103057.88
2023-02-05T16:13:16.674Z,103057.81
2023-02-05T16:16:05.313Z,103052.38
2023-02-05T16:19:02.300Z,103056.63
2023-02-05T16:21:42.453Z,103061.75
2023-02-05T16:24:27.455Z,103051.22
2023-02-05T16:27:03.522Z,103042.50
2023-02-05T16:29:47.779Z,103051.97
2023-02-05T16:32:32.258Z,103045.84
2023-02-05T16:35:04.897Z,103048.41
2023-02-05T16:37:32.613Z,103047.47
2023-02-05T16:40:03.098Z,103044.81
2023-02-05T16:42:43.463Z,103037.00
2023-02-05T16:45:11.020Z,103023.00
2023-02-05T16:47:41.271Z,103028.06
2023-02-05T16:50:38.992Z,103029.59
2023-02-05T16:53:26.541Z,103035.59
2023-02-05T16:56:10.123Z,103040.63
2023-02-05T16:58:43.677Z,103043.97
2023-02-05T17:01:11.436Z,103044.81
2023-02-05T17:03:41.279Z,103042.94
2023-02-05T17:06:14.996Z,103042.91
2023-02-05T17:08:46.796Z,103041.13
2023-02-05T17:11:42.248Z,103027.16
2023-02-05T17:14:27.009Z,103032.19
2023-02-05T17:16:57.397Z,103038.06
2023-02-05T17:19:34.719Z,103038.00
2023-02-05T17:22:14.682Z,103031.91
2023-02-05T17:24:52.040Z,103030.97
2023-02-05T17:27:39.234Z,103032.66
2023-02-05T17:30:14.576Z,103036.94
2023-02-05T17:32:42.640Z,103038.59
2023-02-05T17:35:15.398Z,103035.97
2023-02-05T17:37:43.594Z,103042.84
2023-02-05T17:40:14.667Z,103065.25
2023-02-05T17:42:44.263Z,103075.41
2023-02-05T17:45:35.129Z,103077.91
2023-02-05T17:48:03.030Z,103086.53
2023-02-05T17:50:31.710Z,103096.03
2023-02-05T17:52:59.313Z,103090.84
2023-02-05T17:55:26.931Z,103087.31
2023-02-05T17:57:54.639Z,103079.47
2023-02-05T18:00:24.400Z,103076.00
2023-02-05T18:02:53.092Z,103080.25
2023-02-05T18:05:21.055Z,103082.84
2023-02-05T18:07:54.175Z,103086.31
2023-02-05T18:10:25.139Z,103087.16
2023-02-05T18:12:53.921Z,103089.72
2023-02-05T18:15:22.016Z,103093.13
2023-02-05T18:17:49.522Z,103100.09
2023-02-05T18:20:19.851Z,103114.72
2023-02-05T18:22:48.325Z,103120.72
2023-02-05T18:29:36.664Z,103123.03
2023-02-05T18:32:05.461Z,103123.72
2023-02-05T18:34:34.508Z,103124.56
2023-02-05T18:37:02.248Z,103130.59
2023-02-05T18:39:30.604Z,103129.69
2023-02-05T18:41:59.240Z,103128.75
2023-02-05T18:44:27.528Z,103129.66
2023-02-05T18:46:55.396Z,103139.03
2023-02-05T18:49:23.381Z,103131.25
2023-02-05T18:51:51.192Z,103132.78
2023-02-05T18:54:20.713Z,103130.97
2023-02-05T18:56:48.827Z,103134.38
2023-02-05T18:59:18.341Z,103142.06
2023-02-05T19:01:46.331Z,103143.66
2023-02-05T19:04:38.640Z,103161.81
2023-02-05T19:07:10.434Z,103164.38
2023-02-05T19:09:39.991Z,103166.16
2023-02-05T19:12:07.645Z,103163.56
2023-02-05T19:14:35.390Z,103166.16
2023-02-05T19:17:03.582Z,103165.31
2023-02-05T19:19:32.495Z,103164.41
2023-02-05T19:22:02.364Z,103158.34
2023-02-05T19:24:30.340Z,103147.94
2023-02-05T19:27:01.920Z,103152.25
2023-02-05T19:30:05.897Z,103148.63
2023-02-05T19:32:34.205Z,103151.97
2023-02-05T19:35:03.168Z,103147.56
2023-02-05T19:37:30.363Z,103147.31
2023-02-05T19:39:57.590Z,103136.13
2023-02-05T19:42:27.181Z,103138.56
2023-02-05T19:44:54.414Z,103144.53
2023-02-05T19:47:21.614Z,103142.03
2023-02-05T19:49:48.778Z,103138.59
2023-02-05T19:52:15.952Z,103130.91
2023-02-05T19:54:43.062Z,103131.81
2023-02-05T19:57:10.252Z,103140.47
2023-02-05T19:59:37.413Z,103138.59
2023-02-05T20:02:04.554Z,103137.69
2023-02-05T20:04:31.725Z,103135.97
2023-02-05T20:06:59.650Z,103135.88
2023-02-05T20:09:27.250Z,103140.09
2023-02-05T20:11:55.415Z,103135.75
2023-02-05T20:14:23.189Z,103134.03
2023-02-05T20:16:51.770Z,103139.22
2023-02-05T20:19:19.117Z,103133.09
2023-02-05T20:21:47.025Z,103132.09
2023-02-05T20:24:16.224Z,103132.97
2023-02-05T20:26:44.596Z,103123.47
2023-02-05T20:29:30.644Z,103123.44
2023-02-05T20:32:00.466Z,103123.44
2023-02-05T20:34:30.680Z,103126.91
2023-02-05T20:37:00.750Z,103126.91
2023-02-05T20:39:29.236Z,103128.72
2023-02-05T20:41:58.164Z,103127.78
2023-02-05T20:44:27.078Z,103132.97
2023-02-05T20:46:54.861Z,103130.34
2023-02-05T20:49:22.320Z,103133.63
2023-02-05T20:51:49.457Z,103151.75
2023-02-05T20:54:16.629Z,103145.75
2023-02-05T20:56:43.748Z,103139.59
2023-02-05T20:59:12.068Z,103139.34
2023-02-05T21:01:39.864Z,103148.69
2023-02-05T21:04:09.086Z,103166.00
2023-02-05T21:06:38.899Z,103177.28
2023-02-05T21:09:07.817Z,103183.34
2023-02-05T21:11:35.692Z,103188.47
2023-02-05T21:14:03.973Z,103186.66
2023-02-05T21:16:33.550Z,103207.25
2023-02-05T21:19:00.917Z,103206.13
2023-02-05T21:21:33.624Z,103227.66
2023-02-05T21:24:03.474Z,103228.41
2023-02-05T21:26:33.621Z,103237.88
2023-02-05T21:29:28.480Z,103224.81
2023-02-05T21:31:55.894Z,103219.59
2023-02-05T21:34:25.618Z,103217.03
2023-02-05T21:36:53.971Z,103220.50
2023-02-05T21:39:21.903Z,103222.38
2023-02-05T21:41:50.681Z,103212.06
2023-02-05T21:44:18.026Z,103201.78
2023-02-05T21:46:45.206Z,103206.94
2023-02-05T21:49:12.443Z,103225.03
2023-02-05T21:51:42.173Z,103219.91
2023-02-05T21:54:10.443Z,103229.34
2023-02-05T21:56:39.786Z,103224.94
2023-02-05T21:59:07.053Z,103245.59
2023-02-05T22:01:36.000Z,103239.38
2023-02-05T22:04:06.777Z,103240.09
2023-02-05T22:06:35.214Z,103241.84
2023-02-05T22:09:04.902Z,103248.66
2023-02-05T22:11:32.586Z,103250.38
2023-02-05T22:13:59.799Z,103239.94
2023-02-05T22:16:29.321Z,103225.28
2023-02-05T22:18:57.263Z,103232.03
2023-02-05T22:21:27.206Z,103225.03
2023-02-05T22:23:56.266Z,103235.44
2023-02-05T22:26:27.199Z,103231.06
2023-02-05T22:28:56.055Z,103225.09
2023-02-05T22:31:23.468Z,103225.03
2023-02-05T22:33:51.267Z,103224.09
2023-02-05T22:36:23.009Z,103221.44
2023-02-05T22:38:50.995Z,103217.97
2023-02-05T22:41:37.850Z,103203.25
2023-02-05T22:44:05.908Z,103214.41
2023-02-05T22:46:37.286Z,103209.25
2023-02-05T22:49:04.971Z,103204.94
2023-02-05T22:51:35.487Z,103201.59
2023-02-05T22:54:02.829Z,103195.59
2023-02-05T22:56:30.704Z,103208.56
2023-02-05T22:58:58.273Z,103211.06
2023-02-05T23:01:27.055Z,103212.69
2023-02-05T23:03:55.114Z,103209.97
2023-02-05T23:06:26.836Z,103213.44
2023-02-05T23:09:02.254Z,103210.84
2023-02-05T23:11:31.460Z,103212.63
2023-02-05T23:13:59.725Z,103210.84
2023-02-05T23:16:29.605Z,103200.47
2023-02-05T23:18:58.802Z,103196.25
2023-02-05T23:21:27.519Z,103198.88
2023-02-05T23:23:54.866Z,103198.88
2023-02-05T23:26:27.533Z,103191.13
2023-02-05T23:28:55.711Z,103179.03
2023-02-05T23:31:24.352Z,103176.31
2023-02-05T23:33:52.222Z,103177.06
2023-02-05T23:36:19.406Z,103163.13
2023-02-05T23:38:46.809Z,103162.84
2023-02-05T23:41:14.304Z,103156.81
2023-02-05T23:43:41.586Z,103149.91
2023-02-05T23:46:08.872Z,103154.22
2023-02-05T23:48:36.103Z,103157.69
2023-02-05T23:51:03.334Z,103156.72
2023-02-05T23:53:30.579Z,103160.13
2023-02-05T23:55:57.774Z,103174.75
2023-02-05T23:58:25.925Z,103174.66
